Brumadinho, Brazil
Current Conditions -  °F | °C
As of 12:00 PM on Monday 22 Dec 2014 (Local Time) from SBBH Reporting Station
Broken Clouds Broken Clouds  
Wind Chill: 77°   Ceiling: 2500
Heat Index: 79°   Visibility: 6mi
Dew Point: 66°   Wind: 7mph
Humidity: 69%   Direction: 320°NW
Pressure: 30.06"   Gusts: NA
Location:  20.14°S, 44.2°W
Report Text: SBBH 221400Z 32006KT 9999 BKN025 SCT040 25/19 Q1018
Loading
Personal Weather Stations






























Interactive Weather Map New forecast layout! Learn more

10-Day Weather Forecast

Advertisements
Track Severe Weather on mobile